createdAt,value
2019-04-22T00:02:10.783Z,67.70
2019-04-22T00:04:51.216Z,67.80
2019-04-22T00:07:40.307Z,67.80
2019-04-22T00:10:06.350Z,67.50
2019-04-22T00:12:42.346Z,67.30
2019-04-22T00:15:05.462Z,67.40
2019-04-22T00:17:45.120Z,67.10
2019-04-22T00:20:08.565Z,66.60
2019-04-22T00:22:38.646Z,63.80
2019-04-22T00:25:11.861Z,63.80
2019-04-22T00:27:51.146Z,62.60
2019-04-22T00:30:17.816Z,64.30
2019-04-22T00:33:03.452Z,62.90
2019-04-22T00:35:33.128Z,62.20
2019-04-22T00:38:11.527Z,64.30
2019-04-22T00:40:42.767Z,64.10
2019-04-22T00:43:04.981Z,61.50
2019-04-22T00:48:16.385Z,62.70
2019-04-22T00:50:53.150Z,61.20
2019-04-22T00:53:20.118Z,62.40
2019-04-22T00:56:31.101Z,64.40
2019-04-22T00:58:46.695Z,67.20
2019-04-22T01:01:20.751Z,64.50
2019-04-22T01:04:00.817Z,64.60
2019-04-22T01:06:27.328Z,64.80
2019-04-22T01:09:02.035Z,63.70
2019-04-22T01:14:00.156Z,64.00
2019-04-22T01:16:29.732Z,64.30
2019-04-22T01:21:36.586Z,63.90
2019-04-22T01:23:59.858Z,63.90
2019-04-22T01:26:27.140Z,63.90
2019-04-22T01:28:53.597Z,60.50
2019-04-22T01:31:19.168Z,61.00
2019-04-22T01:33:48.311Z,59.90
2019-04-22T01:36:38.741Z,60.00
2019-04-22T01:39:02.389Z,60.60
2019-04-22T01:41:48.775Z,61.50
2019-04-22T01:46:49.428Z,61.50
2019-04-22T01:52:02.497Z,60.20
2019-04-22T01:56:55.325Z,59.20
2019-04-22T01:59:18.374Z,60.60
2019-04-22T02:07:16.926Z,60.20
2019-04-22T02:09:49.729Z,58.30
2019-04-22T02:12:21.113Z,58.60
2019-04-22T02:14:52.245Z,58.30
2019-04-22T02:17:26.701Z,57.90
2019-04-22T02:19:57.602Z,57.70
2019-04-22T02:22:44.303Z,57.70
2019-04-22T02:25:09.463Z,57.70
2019-04-22T02:27:46.042Z,58.40
2019-04-22T02:30:09.556Z,57.50
2019-04-22T02:35:23.348Z,57.50
2019-04-22T02:37:45.211Z,58.20
2019-04-22T02:40:27.653Z,58.60
2019-04-22T02:42:51.873Z,60.00
2019-04-22T02:45:26.391Z,59.30
2019-04-22T02:50:19.348Z,60.80
2019-04-22T02:52:54.268Z,61.00
2019-04-22T02:55:27.660Z,62.20
2019-04-22T02:57:57.672Z,63.60
2019-04-22T03:00:39.726Z,63.40
2019-04-22T03:05:36.394Z,63.60
2019-04-22T03:08:08.329Z,63.70
2019-04-22T03:13:17.576Z,65.00
2019-04-22T03:15:44.496Z,65.20
2019-04-22T03:18:16.808Z,64.60
2019-04-22T03:20:42.009Z,65.30
2019-04-22T03:23:35.990Z,65.50
2019-04-22T03:26:01.166Z,65.90
2019-04-22T03:28:19.816Z,66.30
2019-04-22T03:33:23.444Z,66.90
2019-04-22T03:36:25.978Z,66.60
2019-04-22T03:38:41.161Z,66.90
2019-04-22T03:43:35.179Z,67.40
2019-04-22T03:45:52.997Z,67.90
2019-04-22T03:51:09.634Z,69.10
2019-04-22T03:53:36.144Z,69.50
2019-04-22T03:56:32.008Z,69.20
2019-04-22T03:58:37.247Z,68.90
2019-04-22T04:01:34.219Z,68.80
2019-04-22T04:04:00.627Z,69.50
2019-04-22T04:06:37.018Z,68.60
2019-04-22T04:08:51.774Z,68.40
2019-04-22T04:11:38.571Z,68.20
2019-04-22T04:14:02.884Z,67.80
2019-04-22T04:16:34.410Z,67.90
2019-04-22T04:21:40.671Z,66.40
2019-04-22T04:24:11.240Z,64.90
2019-04-22T04:26:48.097Z,62.80
2019-04-22T04:29:22.563Z,64.40
2019-04-22T04:34:28.619Z,64.10
2019-04-22T04:36:57.803Z,62.20
2019-04-22T04:39:28.740Z,62.30
2019-04-22T04:42:05.440Z,62.20
2019-04-22T04:44:35.195Z,62.20
2019-04-22T04:47:11.472Z,60.50
2019-04-22T04:49:23.850Z,59.60
2019-04-22T04:52:00.633Z,58.70
2019-04-22T04:54:30.662Z,57.30
2019-04-22T04:57:17.413Z,57.60
2019-04-22T05:04:59.458Z,54.80
2019-04-22T05:07:17.872Z,55.50
2019-04-22T05:09:44.850Z,54.90
2019-04-22T05:12:25.225Z,54.00
2019-04-22T05:14:46.427Z,55.00
2019-04-22T05:17:18.333Z,54.20
2019-04-22T05:19:48.733Z,52.70
2019-04-22T05:22:33.647Z,53.20
2019-04-22T05:24:56.697Z,53.40
2019-04-22T05:30:12.288Z,52.90
2019-04-22T05:32:24.728Z,52.10
2019-04-22T05:34:57.566Z,52.70
2019-04-22T05:37:27.613Z,52.10
2019-04-22T05:39:58.720Z,51.10
2019-04-22T05:42:25.337Z,50.50
2019-04-22T05:44:55.204Z,49.20
2019-04-22T05:47:26.017Z,47.80
2019-04-22T05:49:55.190Z,46.80
2019-04-22T05:52:24.943Z,47.30
2019-04-22T05:55:06.624Z,47.60
2019-04-22T05:57:31.654Z,48.20
2019-04-22T06:00:06.622Z,47.00
2019-04-22T06:02:52.160Z,47.00
2019-04-22T06:07:31.325Z,45.10
2019-04-22T06:10:13.695Z,45.20
2019-04-22T06:12:35.344Z,45.80
2019-04-22T06:15:13.209Z,43.60
2019-04-22T06:17:49.240Z,44.70
2019-04-22T06:20:15.691Z,44.20
2019-04-22T06:22:50.483Z,42.60
2019-04-22T06:25:38.624Z,43.40
2019-04-22T06:27:52.450Z,42.40
2019-04-22T06:30:23.329Z,42.90
2019-04-22T06:32:47.266Z,42.40
2019-04-22T06:35:29.933Z,41.80
2019-04-22T06:38:10.618Z,42.20
2019-04-22T06:40:27.438Z,41.90
2019-04-22T06:42:58.569Z,42.00
2019-04-22T06:45:30.621Z,42.20
2019-04-22T06:50:36.723Z,42.00
2019-04-22T06:53:02.642Z,42.10
2019-04-22T06:55:35.622Z,41.90
2019-04-22T06:58:04.803Z,40.90
2019-04-22T07:00:38.649Z,40.70
2019-04-22T07:03:32.685Z,40.20
2019-04-22T07:05:43.692Z,41.60
2019-04-22T07:08:36.624Z,40.10
2019-04-22T07:16:18.665Z,40.80
2019-04-22T07:18:35.722Z,40.40
2019-04-22T07:21:23.675Z,40.90
2019-04-22T07:24:02.987Z,38.20
2019-04-22T07:26:08.770Z,39.20
2019-04-22T07:28:40.615Z,43.40
2019-04-22T07:31:14.311Z,37.50
2019-04-22T07:33:48.802Z,38.10
2019-04-22T07:36:42.165Z,35.40
2019-04-22T07:38:35.895Z,35.90
2019-04-22T07:41:14.732Z,37.90
2019-04-22T07:44:10.342Z,34.90
2019-04-22T07:46:18.760Z,34.80
2019-04-22T07:48:53.657Z,34.40
2019-04-22T07:51:20.221Z,34.90
2019-04-22T07:53:56.277Z,32.30
2019-04-22T07:56:23.903Z,34.00
2019-04-22T07:58:55.601Z,32.20
2019-04-22T08:01:28.019Z,31.00
2019-04-22T08:06:30.991Z,30.50
2019-04-22T08:09:03.244Z,29.80
2019-04-22T08:11:51.553Z,30.20
2019-04-22T08:14:00.303Z,30.30
2019-04-22T08:16:38.117Z,30.40
2019-04-22T08:19:10.620Z,29.80
2019-04-22T08:21:38.449Z,28.80
2019-04-22T08:24:07.821Z,28.80
2019-04-22T08:26:38.323Z,28.70
2019-04-22T08:29:14.495Z,26.80
2019-04-22T08:31:42.812Z,29.30
2019-04-22T08:34:14.289Z,29.50
2019-04-22T08:36:53.974Z,26.90
2019-04-22T08:41:40.231Z,29.90
2019-04-22T08:44:18.621Z,27.40
2019-04-22T08:46:48.671Z,26.80
2019-04-22T08:49:18.059Z,27.10
2019-04-22T08:51:49.091Z,26.70
2019-04-22T08:54:19.978Z,27.30
2019-04-22T08:56:52.403Z,28.70
2019-04-22T08:59:38.544Z,29.10
2019-04-22T09:01:53.439Z,26.60
2019-04-22T09:04:16.253Z,24.80
2019-04-22T09:09:34.334Z,24.60
2019-04-22T09:14:40.583Z,25.40
2019-04-22T09:17:11.632Z,26.20
2019-04-22T09:19:34.000Z,24.80
2019-04-22T09:22:13.665Z,25.40
2019-04-22T09:24:43.085Z,23.60
2019-04-22T09:27:22.672Z,22.30
2019-04-22T09:34:56.275Z,22.30
2019-04-22T09:37:21.043Z,22.50
2019-04-22T09:39:51.765Z,21.80
2019-04-22T09:42:17.232Z,23.80
2019-04-22T09:44:59.200Z,23.00
2019-04-22T09:47:33.889Z,22.60
2019-04-22T09:50:03.806Z,23.20
2019-04-22T09:52:35.938Z,22.90
2019-04-22T09:55:07.476Z,22.90
2019-04-22T09:57:31.507Z,22.30
2019-04-22T10:00:10.977Z,22.80
2019-04-22T10:02:41.007Z,21.90
2019-04-22T10:05:13.744Z,23.10
2019-04-22T10:07:39.398Z,21.80
2019-04-22T10:10:15.149Z,22.30
2019-04-22T10:12:42.367Z,18.30
2019-04-22T10:15:18.622Z,19.30
2019-04-22T10:18:02.529Z,19.40
2019-04-22T10:20:20.578Z,21.20
2019-04-22T10:23:06.210Z,21.30
2019-04-22T10:25:23.171Z,20.90
2019-04-22T10:27:55.205Z,20.70
2019-04-22T10:30:37.113Z,18.60
2019-04-22T10:32:56.383Z,21.80
2019-04-22T10:35:17.293Z,20.20
2019-04-22T10:37:42.880Z,18.60
2019-04-22T10:40:23.759Z,20.30
2019-04-22T10:42:53.605Z,18.20
2019-04-22T10:45:23.964Z,17.20
2019-04-22T10:47:54.277Z,18.30
2019-04-22T10:50:33.152Z,18.80
2019-04-22T10:53:01.612Z,17.40
2019-04-22T10:55:31.852Z,19.20
2019-04-22T10:58:02.293Z,18.30
2019-04-22T11:00:31.930Z,18.00
2019-04-22T11:03:02.389Z,18.40
2019-04-22T11:05:34.323Z,19.20
2019-04-22T11:08:07.780Z,20.00
2019-04-22T11:10:52.194Z,20.70
2019-04-22T11:13:07.249Z,18.10
2019-04-22T11:15:37.115Z,16.90
2019-04-22T11:18:07.420Z,16.70
2019-04-22T11:20:37.789Z,16.90
2019-04-22T11:23:08.740Z,18.60
2019-04-22T11:25:39.554Z,18.00
2019-04-22T11:28:09.990Z,17.30
2019-04-22T11:30:46.096Z,17.20
2019-04-22T11:33:16.609Z,19.30
2019-04-22T11:35:46.180Z,18.20
2019-04-22T11:38:28.831Z,18.10
2019-04-22T11:41:00.017Z,22.10
2019-04-22T11:43:32.230Z,18.80
2019-04-22T11:46:03.081Z,18.80
2019-04-22T11:48:33.978Z,18.70
2019-04-22T11:51:04.378Z,18.60
2019-04-22T11:53:36.705Z,29.60
2019-04-22T11:56:08.824Z,18.90
2019-04-22T11:58:39.050Z,20.00
2019-04-22T12:01:08.847Z,18.10
2019-04-22T12:03:39.920Z,19.50
2019-04-22T12:06:10.351Z,20.00
2019-04-22T12:08:41.464Z,19.40
2019-04-22T12:11:38.527Z,19.60
2019-04-22T12:17:01.654Z,20.60
2019-04-22T12:19:31.387Z,20.00
2019-04-22T12:22:01.008Z,20.50
2019-04-22T12:24:31.981Z,33.10
2019-04-22T12:27:02.204Z,22.00
2019-04-22T12:29:33.198Z,20.30
2019-04-22T12:32:03.264Z,19.00
2019-04-22T12:34:44.906Z,20.00
2019-04-22T12:37:22.314Z,21.30
2019-04-22T12:39:54.338Z,30.90
2019-04-22T12:42:23.613Z,19.30
2019-04-22T12:44:54.119Z,20.40
2019-04-22T12:47:24.374Z,19.20
2019-04-22T12:50:06.341Z,20.70
2019-04-22T12:52:33.946Z,20.20
2019-04-22T12:54:57.405Z,18.80
2019-04-22T12:57:28.266Z,19.90
2019-04-22T12:59:59.491Z,20.90
2019-04-22T13:02:29.485Z,20.80
2019-04-22T13:05:00.340Z,21.40
2019-04-22T13:07:31.458Z,20.00
2019-04-22T13:10:01.476Z,22.20
2019-04-22T13:12:32.938Z,23.90
2019-04-22T13:15:04.801Z,23.80
2019-04-22T13:17:35.678Z,23.80
2019-04-22T13:20:28.186Z,23.20
2019-04-22T13:22:58.819Z,24.40
2019-04-22T13:25:30.724Z,22.90
2019-04-22T13:28:00.998Z,22.20
2019-04-22T13:30:32.458Z,21.80
2019-04-22T13:33:02.948Z,22.20
2019-04-22T13:35:33.902Z,21.60
2019-04-22T13:38:06.803Z,21.30
2019-04-22T13:40:55.704Z,21.00
2019-04-22T13:43:11.459Z,22.20
2019-04-22T13:45:41.068Z,21.20
2019-04-22T13:48:29.127Z,21.10
2019-04-22T13:51:26.160Z,18.70
2019-04-22T13:56:08.749Z,19.60
2019-04-22T13:58:32.541Z,19.50
2019-04-22T14:00:46.902Z,18.70
2019-04-22T14:03:36.082Z,18.70
2019-04-22T14:06:08.866Z,19.00
2019-04-22T14:08:38.746Z,19.20
2019-04-22T14:11:19.020Z,18.60
2019-04-22T14:13:39.693Z,18.80
2019-04-22T14:16:09.299Z,19.60
2019-04-22T14:18:39.080Z,19.70
2019-04-22T14:21:09.119Z,19.90
2019-04-22T14:23:40.448Z,20.10
2019-04-22T14:26:11.228Z,20.00
2019-04-22T14:28:41.643Z,19.30
2019-04-22T14:31:12.739Z,19.20
2019-04-22T14:33:46.466Z,18.90
2019-04-22T14:36:25.390Z,18.90
2019-04-22T14:38:57.772Z,20.20
2019-04-22T14:42:12.363Z,19.40
2019-04-22T14:45:15.500Z,21.10
2019-04-22T14:47:19.577Z,19.40
2019-04-22T14:50:04.964Z,33.20
2019-04-22T14:52:41.403Z,24.30
2019-04-22T14:55:00.867Z,20.00
2019-04-22T14:57:19.155Z,20.20
2019-04-22T14:59:50.090Z,20.00
2019-04-22T15:02:19.822Z,19.60
2019-04-22T15:04:50.058Z,19.10
2019-04-22T15:07:21.105Z,19.20
2019-04-22T15:09:52.120Z,19.00
2019-04-22T15:12:31.268Z,19.30
2019-04-22T15:14:53.527Z,19.30
2019-04-22T15:17:33.701Z,20.50
2019-04-22T15:20:14.369Z,19.10
2019-04-22T15:22:44.779Z,20.30
2019-04-22T15:25:21.107Z,20.10
2019-04-22T15:27:51.134Z,20.80
2019-04-22T15:30:21.459Z,19.70
2019-04-22T15:32:51.578Z,19.70
2019-04-22T15:35:23.140Z,20.60
2019-04-22T15:37:53.035Z,20.40
2019-04-22T15:40:22.860Z,20.40
2019-04-22T15:42:52.982Z,20.50
2019-04-22T15:45:25.493Z,19.50
2019-04-22T15:47:57.831Z,20.50
2019-04-22T15:50:28.654Z,18.90
2019-04-22T15:53:00.747Z,19.50
2019-04-22T15:55:29.843Z,20.80
2019-04-22T15:57:59.577Z,20.40
2019-04-22T16:00:39.537Z,20.20
2019-04-22T16:03:03.049Z,20.80
2019-04-22T16:05:32.267Z,20.70
2019-04-22T16:08:03.347Z,21.10
2019-04-22T16:10:33.777Z,21.10
2019-04-22T16:13:12.532Z,22.90
2019-04-22T16:15:36.241Z,22.10
2019-04-22T16:18:08.575Z,24.20
2019-04-22T16:20:38.389Z,25.40
2019-04-22T16:23:29.259Z,23.30
2019-04-22T16:25:59.163Z,24.70
2019-04-22T16:28:29.383Z,25.40
2019-04-22T16:30:59.652Z,25.30
2019-04-22T16:33:31.057Z,26.40
2019-04-22T16:36:01.080Z,38.70
2019-04-22T16:38:33.007Z,27.70
2019-04-22T16:41:02.921Z,28.40
2019-04-22T16:43:33.743Z,28.80
2019-04-22T16:46:03.424Z,29.70
2019-04-22T16:48:35.782Z,29.90
2019-04-22T16:51:06.214Z,31.10
2019-04-22T16:53:38.895Z,29.90
2019-04-22T16:56:08.847Z,31.60
2019-04-22T16:58:38.839Z,32.10
2019-04-22T17:01:10.478Z,32.30
2019-04-22T17:03:58.522Z,32.50
2019-04-22T17:06:30.093Z,34.20
2019-04-22T17:09:00.473Z,32.70
2019-04-22T17:11:31.877Z,41.00
2019-04-22T17:14:01.543Z,33.90
2019-04-22T17:16:32.533Z,34.10
2019-04-22T17:19:02.579Z,35.60
2019-04-22T17:21:32.435Z,35.60
2019-04-22T17:24:01.472Z,36.20
2019-04-22T17:26:32.583Z,36.20
2019-04-22T17:29:06.123Z,35.60
2019-04-22T17:31:34.616Z,36.50
2019-04-22T17:34:04.891Z,37.50
2019-04-22T17:36:36.226Z,36.50
2019-04-22T17:39:22.837Z,36.50
2019-04-22T17:41:59.427Z,37.10
2019-04-22T17:44:46.530Z,38.20
2019-04-22T17:47:04.720Z,39.80
2019-04-22T17:49:53.685Z,40.40
2019-04-22T17:52:32.794Z,40.80
2019-04-22T17:54:56.188Z,41.20
2019-04-22T17:57:42.325Z,41.80
2019-04-22T18:00:17.179Z,42.00
2019-04-22T18:02:51.470Z,42.40
2019-04-22T18:05:12.817Z,42.70
2019-04-22T18:08:08.426Z,42.00
2019-04-22T18:10:40.550Z,41.40
2019-04-22T18:13:25.106Z,41.80
2019-04-22T18:16:12.908Z,43.00
2019-04-22T18:18:43.176Z,43.90
2019-04-22T18:21:08.869Z,43.60
2019-04-22T18:23:29.361Z,44.80
2019-04-22T18:26:14.906Z,44.90
2019-04-22T18:28:49.276Z,45.70
2019-04-22T18:31:15.660Z,45.50
2019-04-22T18:33:47.809Z,48.90
2019-04-22T18:36:26.720Z,47.20
2019-04-22T18:39:08.000Z,48.90
2019-04-22T18:41:30.142Z,46.90
2019-04-22T18:44:04.376Z,47.70
2019-04-22T18:46:34.396Z,50.50
2019-04-22T18:49:08.196Z,50.10
2019-04-22T18:51:44.649Z,52.10
2019-04-22T18:54:31.010Z,50.80
2019-04-22T18:57:05.335Z,51.70
2019-04-22T18:59:25.454Z,52.60
2019-04-22T19:01:48.126Z,53.10
2019-04-22T19:04:26.786Z,52.70
2019-04-22T19:07:17.522Z,52.80
2019-04-22T19:09:48.426Z,53.20
2019-04-22T19:12:28.541Z,53.50
2019-04-22T19:14:57.071Z,53.90
2019-04-22T19:17:35.624Z,54.00
2019-04-22T19:20:02.756Z,53.20
2019-04-22T19:22:30.997Z,53.30
2019-04-22T19:24:56.032Z,53.40
2019-04-22T19:27:46.250Z,54.40
2019-04-22T19:30:24.036Z,53.90
2019-04-22T19:33:07.605Z,54.10
2019-04-22T19:35:28.325Z,53.80
2019-04-22T19:37:58.838Z,55.40
2019-04-22T19:40:52.857Z,55.20
2019-04-22T19:43:18.710Z,55.50
2019-04-22T19:45:44.221Z,56.10
2019-04-22T19:48:25.486Z,55.10
2019-04-22T19:50:52.746Z,54.80
2019-04-22T19:53:22.709Z,54.90
2019-04-22T19:55:48.210Z,55.90
2019-04-22T19:58:20.066Z,56.90
2019-04-22T20:00:50.686Z,58.10
2019-04-22T20:03:44.262Z,57.80
2019-04-22T20:06:16.432Z,58.30
2019-04-22T20:08:54.118Z,57.50
2019-04-22T20:11:35.324Z,58.50
2019-04-22T20:14:10.964Z,57.20
2019-04-22T20:16:32.477Z,57.70
2019-04-22T20:19:11.921Z,59.20
2019-04-22T20:21:42.164Z,59.30
2019-04-22T20:23:59.201Z,58.50
2019-04-22T20:26:45.531Z,59.00
2019-04-22T20:29:13.210Z,60.50
2019-04-22T20:31:48.667Z,59.30
2019-04-22T20:34:21.279Z,59.50
2019-04-22T20:37:03.149Z,60.00
2019-04-22T20:39:38.254Z,59.40
2019-04-22T20:42:18.053Z,59.90
2019-04-22T20:44:42.449Z,59.50
2019-04-22T20:47:07.609Z,60.40
2019-04-22T20:49:44.600Z,60.40
2019-04-22T20:52:16.433Z,64.00
2019-04-22T20:54:42.011Z,60.90
2019-04-22T20:57:09.810Z,60.70
2019-04-22T21:00:00.646Z,60.50
2019-04-22T21:02:29.294Z,60.50
2019-04-22T21:04:54.655Z,61.00
2019-04-22T21:07:31.433Z,60.30
2019-04-22T21:10:01.216Z,60.10
2019-04-22T21:12:31.304Z,60.40
2019-04-22T21:15:13.605Z,60.20
2019-04-22T21:17:59.804Z,60.70
2019-04-22T21:20:37.790Z,61.20
2019-04-22T21:23:02.607Z,61.10
2019-04-22T21:25:25.287Z,60.70
2019-04-22T21:28:09.970Z,60.90
2019-04-22T21:30:37.751Z,61.20
2019-04-22T21:33:04.958Z,61.40
2019-04-22T21:35:53.970Z,61.70
2019-04-22T21:38:34.466Z,61.10
2019-04-22T21:41:06.521Z,62.80
2019-04-22T21:43:36.931Z,64.20
2019-04-22T21:46:11.918Z,61.00
2019-04-22T21:48:42.704Z,63.10
2019-04-22T21:51:20.888Z,62.20
2019-04-22T21:53:50.552Z,63.10
2019-04-22T21:58:50.619Z,63.40
2019-04-22T22:01:49.785Z,63.70
2019-04-22T22:04:18.815Z,65.30
2019-04-22T22:06:39.719Z,63.80
2019-04-22T22:09:23.210Z,63.90
2019-04-22T22:11:44.477Z,64.20
2019-04-22T22:14:16.720Z,64.90
2019-04-22T22:17:02.029Z,64.90
2019-04-22T22:19:39.677Z,65.30
2019-04-22T22:22:28.489Z,65.40
2019-04-22T22:24:48.325Z,65.60
2019-04-22T22:27:14.627Z,65.90
2019-04-22T22:32:16.551Z,66.50
2019-04-22T22:34:50.573Z,65.90
2019-04-22T22:37:12.250Z,66.60
2019-04-22T22:39:41.238Z,66.90
2019-04-22T22:42:01.788Z,67.30
2019-04-22T22:44:36.847Z,66.80
2019-04-22T22:47:18.125Z,67.80
2019-04-22T22:49:59.526Z,66.80
2019-04-22T22:52:46.857Z,66.90
2019-04-22T22:54:58.922Z,66.70
2019-04-22T22:57:33.424Z,66.80
2019-04-22T22:59:58.684Z,66.60
2019-04-22T23:05:22.278Z,65.70
2019-04-22T23:07:55.391Z,66.20
2019-04-22T23:10:19.662Z,66.20
2019-04-22T23:12:57.837Z,66.90
2019-04-22T23:15:20.422Z,66.10
2019-04-22T23:17:37.022Z,65.80
2019-04-22T23:20:06.853Z,66.20
2019-04-22T23:23:03.778Z,66.90
2019-04-22T23:28:37.183Z,66.40
2019-04-22T23:31:25.875Z,66.80
2019-04-22T23:34:01.083Z,67.40
2019-04-22T23:36:32.036Z,66.40
2019-04-22T23:39:14.486Z,66.90
2019-04-22T23:41:46.253Z,66.90
2019-04-22T23:44:13.470Z,67.10
2019-04-22T23:49:34.871Z,67.20
2019-04-22T23:52:21.178Z,67.10
2019-04-22T23:54:50.908Z,67.40
2019-04-22T23:57:15.463Z,67.50
